Time;durP1;ratioP1;P1;durP2;ratioP2;P2;SDS_P1;SDS_P2;PMS_P1;PMS_P2;Temp;Humidity;BMP_temperature;BMP_pressure;BME280_temperature;BME280_humidity;BME280_pressure;Samples;Min_cycle;Max_cycle;Signal;HPM_P1;HPM_P2
2020/12/08 00:01:45;;;;;;;2.00;1.37;;;5.80;97.60;;;;;;7724354;28;20095;-74
2020/12/08 00:05:27;;;;;;;1.63;1.10;;;5.80;97.70;;;;;;7725475;28;20052;-74
2020/12/08 00:09:08;;;;;;;1.83;1.20;;;5.80;97.70;;;;;;7714374;28;20516;-74
2020/12/08 00:12:51;;;;;;;3.03;1.90;;;5.80;97.70;;;;;;7725206;28;20096;-74
2020/12/08 00:16:32;;;;;;;3.00;1.60;;;5.80;97.80;;;;;;7718658;28;20356;-74
2020/12/08 00:20:18;;;;;;;1.90;1.30;;;5.80;97.80;;;;;;7725428;28;20127;-74
2020/12/08 00:24:00;;;;;;;2.45;1.55;;;5.70;97.80;;;;;;7724997;28;20358;-75
2020/12/08 00:27:41;;;;;;;2.13;1.30;;;5.70;97.90;;;;;;7723216;28;20068;-75
2020/12/08 00:31:27;;;;;;;2.33;1.57;;;5.60;98.00;;;;;;7727610;28;20122;-74
2020/12/08 00:35:11;;;;;;;1.90;1.40;;;5.60;97.90;;;;;;7734102;28;20389;-74
2020/12/08 00:38:53;;;;;;;2.20;1.47;;;5.50;97.80;;;;;;7724341;28;20103;-74
2020/12/08 00:42:39;;;;;;;3.17;1.93;;;5.50;97.70;;;;;;7733084;28;20134;-73
2020/12/08 00:46:21;;;;;;;2.25;1.58;;;5.50;97.70;;;;;;7728655;28;20060;-75
2020/12/08 00:50:04;;;;;;;2.03;1.50;;;5.40;97.50;;;;;;7719533;28;20105;-74
2020/12/08 00:53:46;;;;;;;1.87;1.30;;;5.40;97.50;;;;;;7732692;28;20091;-74
2020/12/08 00:57:27;;;;;;;1.53;1.10;;;5.40;97.50;;;;;;7731724;28;20504;-74
2020/12/08 01:01:09;;;;;;;1.83;1.20;;;5.40;97.50;;;;;;7728155;28;20118;-73
2020/12/08 01:04:51;;;;;;;2.20;1.40;;;5.30;97.40;;;;;;7725060;28;20056;-73
2020/12/08 01:08:32;;;;;;;2.50;1.47;;;5.20;97.40;;;;;;7730766;28;20538;-74
2020/12/08 01:12:14;;;;;;;2.37;1.50;;;5.20;97.40;;;;;;7729927;28;20340;-75
2020/12/08 01:15:55;;;;;;;1.33;1.17;;;5.10;97.20;;;;;;7728623;28;20140;-74
2020/12/08 01:19:37;;;;;;;2.07;1.40;;;5.10;97.20;;;;;;7732511;28;20451;-74
2020/12/08 01:23:19;;;;;;;1.67;1.20;;;5.00;97.10;;;;;;7728430;28;20060;-73
2020/12/08 01:27:00;;;;;;;2.03;1.30;;;4.90;97.20;;;;;;7722613;28;20187;-72
2020/12/08 01:30:42;;;;;;;1.73;1.30;;;4.90;97.70;;;;;;7738406;28;20056;-73
2020/12/08 01:34:24;;;;;;;1.27;1.10;;;4.80;97.70;;;;;;7725353;28;20060;-74
2020/12/08 01:38:05;;;;;;;1.83;1.23;;;4.80;97.80;;;;;;7725738;28;20325;-73
2020/12/08 01:41:46;;;;;;;2.00;1.60;;;4.80;97.90;;;;;;7728296;28;20094;-73
2020/12/08 01:45:28;;;;;;;2.20;1.50;;;4.80;97.90;;;;;;7728389;28;20063;-73
2020/12/08 01:49:10;;;;;;;2.07;1.47;;;4.90;98.00;;;;;;7731501;28;20627;-76
2020/12/08 01:52:51;;;;;;;2.57;1.30;;;5.10;98.10;;;;;;7732141;28;20060;-75
2020/12/08 01:56:33;;;;;;;2.40;1.70;;;4.90;97.90;;;;;;7729613;28;20079;-78
2020/12/08 02:00:14;;;;;;;2.03;1.40;;;5.00;97.80;;;;;;7724333;28;20139;-74
2020/12/08 02:03:56;;;;;;;2.37;1.40;;;4.90;97.60;;;;;;7728076;28;20056;-73
2020/12/08 02:07:44;;;;;;;1.37;1.07;;;5.00;97.70;;;;;;7723729;28;20467;-73
2020/12/08 02:11:27;;;;;;;2.33;1.83;;;5.00;97.50;;;;;;7728498;28;20390;-74
2020/12/08 02:15:08;;;;;;;1.97;1.20;;;4.90;97.50;;;;;;7728918;28;20631;-73
2020/12/08 02:18:53;;;;;;;1.47;1.13;;;5.00;97.70;;;;;;7722199;28;20060;-73
2020/12/08 02:22:34;;;;;;;1.20;0.93;;;5.00;97.90;;;;;;7721588;28;20058;-73
2020/12/08 02:26:16;;;;;;;1.77;1.10;;;5.00;98.00;;;;;;7733939;28;20373;-74
2020/12/08 02:29:57;;;;;;;1.90;1.10;;;5.00;98.00;;;;;;7729296;28;20394;-73
2020/12/08 02:33:39;;;;;;;2.30;1.37;;;5.10;98.00;;;;;;7730585;28;20063;-75
2020/12/08 02:37:20;;;;;;;1.97;1.37;;;5.10;97.80;;;;;;7726662;28;20134;-75
2020/12/08 02:41:02;;;;;;;1.73;1.20;;;5.10;97.70;;;;;;7720782;28;20628;-74
2020/12/08 02:44:43;;;;;;;1.53;1.10;;;5.20;97.60;;;;;;7729096;28;20065;-74
2020/12/08 02:48:25;;;;;;;1.67;1.20;;;5.10;97.50;;;;;;7723436;28;20459;-74
2020/12/08 02:52:13;;;;;;;2.40;1.60;;;5.20;97.60;;;;;;7727620;28;20056;-74
2020/12/08 02:55:55;;;;;;;4.47;2.57;;;5.10;97.70;;;;;;7730019;28;20052;-74
2020/12/08 02:59:36;;;;;;;3.37;2.17;;;5.20;97.80;;;;;;7731342;28;20060;-74
2020/12/08 03:03:19;;;;;;;9.77;5.60;;;5.20;97.90;;;;;;7721438;28;20080;-74
2020/12/08 03:07:00;;;;;;;5.87;3.50;;;5.20;97.90;;;;;;7728760;28;20091;-74
2020/12/08 03:10:41;;;;;;;2.77;1.87;;;5.80;98.00;;;;;;7727937;28;20052;-74
2020/12/08 03:14:23;;;;;;;3.33;2.00;;;5.20;98.00;;;;;;7728512;28;20134;-74
2020/12/08 03:18:04;;;;;;;2.23;1.67;;;5.20;98.10;;;;;;7712129;28;20147;-73
2020/12/08 03:21:46;;;;;;;3.20;1.80;;;5.30;98.10;;;;;;7724719;28;20067;-74
2020/12/08 03:25:27;;;;;;;3.50;2.07;;;5.30;98.10;;;;;;7723195;28;20063;-76
2020/12/08 03:29:09;;;;;;;2.90;1.70;;;5.40;98.20;;;;;;7726520;28;20524;-75
2020/12/08 03:32:50;;;;;;;2.80;1.70;;;5.40;98.50;;;;;;7728200;28;20626;-74
2020/12/08 03:36:31;;;;;;;2.10;1.47;;;5.40;98.10;;;;;;7720347;28;20186;-74
2020/12/08 03:40:13;;;;;;;2.40;1.40;;;5.50;97.80;;;;;;7726304;28;20613;-74
2020/12/08 03:43:55;;;;;;;2.30;1.53;;;5.40;97.40;;;;;;7727876;28;20071;-74
2020/12/08 03:47:36;;;;;;;2.33;1.47;;;5.40;96.80;;;;;;7716152;28;20143;-74
2020/12/08 03:51:20;;;;;;;3.47;1.60;;;5.30;96.40;;;;;;7722286;28;20453;-72
2020/12/08 03:55:02;;;;;;;3.63;1.90;;;5.10;95.90;;;;;;7727829;28;20123;-73
2020/12/08 03:58:44;;;;;;;3.20;1.70;;;5.00;95.60;;;;;;7728799;28;20143;-73
2020/12/08 04:02:25;;;;;;;2.10;1.23;;;4.80;95.40;;;;;;7735148;28;20102;-74
2020/12/08 04:06:06;;;;;;;1.87;1.27;;;4.70;95.50;;;;;;7732725;28;20150;-73
2020/12/08 04:09:48;;;;;;;1.53;1.10;;;4.50;95.50;;;;;;7726879;28;20085;-75
2020/12/08 04:13:30;;;;;;;1.73;1.23;;;4.40;95.60;;;;;;7731492;28;20131;-73
2020/12/08 04:17:17;;;;;;;2.10;1.07;;;4.30;95.90;;;;;;7729156;28;20095;-73
2020/12/08 04:20:58;;;;;;;1.83;1.17;;;4.30;96.70;;;;;;7742838;28;20064;-74
2020/12/08 04:24:40;;;;;;;2.17;1.47;;;4.30;97.50;;;;;;7726119;28;20095;-73
2020/12/08 04:28:21;;;;;;;2.20;1.50;;;4.30;97.90;;;;;;7733064;28;20143;-73
2020/12/08 04:32:04;;;;;;;2.10;1.40;;;4.40;98.20;;;;;;7732782;28;20067;-73
2020/12/08 04:35:46;;;;;;;3.60;2.17;;;4.50;98.30;;;;;;7731140;28;20055;-73
2020/12/08 04:39:28;;;;;;;2.43;1.50;;;4.60;98.20;;;;;;7723699;28;20055;-73
2020/12/08 04:43:09;;;;;;;2.00;1.30;;;4.70;98.10;;;;;;7733849;28;20060;-73
2020/12/08 04:46:56;;;;;;;1.80;1.30;;;4.70;98.00;;;;;;7732934;28;20410;-74
2020/12/08 04:50:37;;;;;;;2.00;1.50;;;4.80;97.80;;;;;;7732566;28;20070;-73
2020/12/08 04:54:21;;;;;;;4.23;2.10;;;4.80;97.40;;;;;;7733062;28;20512;-73
2020/12/08 04:58:03;;;;;;;2.47;1.60;;;4.80;97.30;;;;;;7734555;28;20060;-73
2020/12/08 05:01:45;;;;;;;2.47;1.47;;;4.80;97.10;;;;;;7737068;28;20139;-73
2020/12/08 05:05:27;;;;;;;1.50;1.17;;;4.80;96.80;;;;;;7726447;28;20059;-74
2020/12/08 05:09:08;;;;;;;1.90;1.23;;;4.80;96.60;;;;;;7729385;28;20139;-74
2020/12/08 05:12:50;;;;;;;1.60;1.20;;;4.70;96.60;;;;;;7717355;28;20091;-74
2020/12/08 05:16:32;;;;;;;1.90;1.10;;;4.60;96.40;;;;;;7739081;28;20056;-74
2020/12/08 05:20:16;;;;;;;1.90;1.23;;;4.60;96.20;;;;;;7730372;28;20064;-74
2020/12/08 05:23:58;;;;;;;2.03;1.50;;;4.50;96.00;;;;;;7731823;28;20104;-74
2020/12/08 05:27:42;;;;;;;2.03;1.60;;;4.50;96.30;;;;;;7719391;28;20465;-74
2020/12/08 05:31:26;;;;;;;2.57;1.70;;;4.30;96.80;;;;;;7727316;28;20143;-74
2020/12/08 05:35:10;;;;;;;2.00;1.37;;;4.40;97.50;;;;;;7719622;28;20095;-74
2020/12/08 05:38:58;;;;;;;2.70;1.57;;;4.40;98.00;;;;;;7732696;28;20084;-74
2020/12/08 05:42:50;;;;;;;3.07;1.60;;;4.50;98.40;;;;;;7729445;28;20091;-73
2020/12/08 05:46:42;;;;;;;1.90;1.47;;;4.60;98.60;;;;;;7731444;28;20166;-73
2020/12/08 05:50:26;;;;;;;3.03;1.67;;;4.70;98.90;;;;;;7727000;28;20131;-73
2020/12/08 05:54:17;;;;;;;1.53;1.00;;;4.80;99.10;;;;;;7723283;28;20143;-73
2020/12/08 05:58:09;;;;;;;1.30;1.00;;;5.00;99.20;;;;;;7727620;28;20103;-73
2020/12/08 06:01:51;;;;;;;2.90;1.50;;;5.10;99.20;;;;;;7730527;28;20056;-74
2020/12/08 06:05:33;;;;;;;1.43;1.10;;;5.30;99.30;;;;;;7723950;28;20069;-72
2020/12/08 06:09:26;;;;;;;1.23;0.90;;;5.50;99.30;;;;;;7731297;28;20097;-74
2020/12/08 06:13:07;;;;;;;0.83;0.80;;;5.60;99.30;;;;;;7715627;28;20604;-73
2020/12/08 06:16:59;;;;;;;1.27;0.90;;;5.80;99.30;;;;;;7728488;28;20063;-77
2020/12/08 06:20:41;;;;;;;1.80;1.03;;;5.90;99.10;;;;;;7730400;28;20135;-77
2020/12/08 06:24:23;;;;;;;1.00;0.80;;;6.10;99.10;;;;;;7729360;28;20530;-79
2020/12/08 06:28:04;;;;;;;1.20;0.97;;;6.20;99.00;;;;;;7726735;28;20139;-75
2020/12/08 06:31:50;;;;;;;1.27;0.77;;;6.30;98.80;;;;;;7729211;28;20389;-79
2020/12/08 06:35:33;;;;;;;1.40;0.87;;;6.40;98.50;;;;;;7730939;28;20101;-83
2020/12/08 06:39:28;;;;;;;0.65;0.65;;;6.40;98.20;;;;;;7725526;28;20106;-76
2020/12/08 06:43:10;;;;;;;0.83;0.70;;;6.50;98.10;;;;;;7730667;28;20142;-77
2020/12/08 06:46:59;;;;;;;0.90;0.80;;;6.40;98.00;;;;;;7726259;28;20060;-75
2020/12/08 06:50:42;;;;;;;2.03;1.43;;;6.40;97.80;;;;;;7723877;28;20055;-76
2020/12/08 06:54:24;;;;;;;2.00;1.13;;;6.30;97.30;;;;;;7729507;28;20064;-76
2020/12/08 06:58:06;;;;;;;1.77;1.13;;;6.20;96.80;;;;;;7728412;28;20643;-77
2020/12/08 07:01:52;;;;;;;1.50;0.93;;;6.10;96.50;;;;;;7730586;28;20089;-76
2020/12/08 07:05:34;;;;;;;1.90;1.25;;;6.00;96.30;;;;;;7726693;28;20109;-75
2020/12/08 07:09:16;;;;;;;1.50;1.00;;;5.90;96.50;;;;;;7729479;28;20090;-74
2020/12/08 07:12:58;;;;;;;2.90;1.50;;;5.80;96.90;;;;;;7730840;28;20139;-75
2020/12/08 07:16:41;;;;;;;1.70;1.10;;;5.70;97.30;;;;;;7729575;28;20592;-76
2020/12/08 07:20:23;;;;;;;1.60;1.20;;;5.70;97.30;;;;;;7731207;28;20051;-74
2020/12/08 07:24:05;;;;;;;2.40;1.50;;;5.60;97.20;;;;;;7710178;28;20062;-74
2020/12/08 07:27:49;;;;;;;1.83;1.13;;;5.60;97.10;;;;;;7729629;28;20429;-73
2020/12/08 07:31:31;;;;;;;2.83;1.57;;;5.50;96.80;;;;;;7724671;28;20781;-73
2020/12/08 07:35:27;;;;;;;1.73;1.20;;;5.40;96.50;;;;;;7727565;28;20063;-73
2020/12/08 07:39:19;;;;;;;1.90;1.17;;;5.40;96.30;;;;;;7725556;28;20146;-73
2020/12/08 07:43:01;;;;;;;1.53;1.07;;;5.30;96.80;;;;;;7723724;28;20095;-73
2020/12/08 07:46:51;;;;;;;1.17;0.80;;;5.20;97.50;;;;;;7730873;28;20440;-75
2020/12/08 07:50:33;;;;;;;2.20;1.37;;;5.20;97.70;;;;;;7725168;28;20052;-74
2020/12/08 07:54:15;;;;;;;2.33;1.23;;;5.20;97.60;;;;;;7724777;28;20138;-74
2020/12/08 07:57:57;;;;;;;2.10;1.30;;;5.40;97.60;;;;;;7723247;28;20457;-74
2020/12/08 08:01:39;;;;;;;1.73;1.07;;;5.20;97.70;;;;;;7728559;28;20616;-74
2020/12/08 08:05:21;;;;;;;1.53;1.00;;;5.20;98.00;;;;;;7721018;28;20131;-76
2020/12/08 08:09:07;;;;;;;1.23;1.00;;;5.30;98.20;;;;;;7723677;28;20052;-74
2020/12/08 08:12:49;;;;;;;1.25;0.90;;;5.30;98.20;;;;;;7726056;28;20106;-74
2020/12/08 08:16:30;;;;;;;1.53;1.10;;;5.30;97.90;;;;;;7728297;28;20087;-74
2020/12/08 08:20:12;;;;;;;1.00;0.80;;;5.30;97.70;;;;;;7728918;28;20091;-74
2020/12/08 08:23:53;;;;;;;1.40;0.90;;;5.30;97.60;;;;;;7729084;28;20100;-75
2020/12/08 08:27:35;;;;;;;1.37;0.90;;;5.30;97.60;;;;;;7730228;28;20063;-74
2020/12/08 08:31:16;;;;;;;1.27;0.93;;;5.30;97.40;;;;;;7728897;28;20063;-79
2020/12/08 08:34:58;;;;;;;1.17;0.87;;;5.20;97.30;;;;;;7726054;28;20385;-74
2020/12/08 08:38:39;;;;;;;1.63;1.10;;;5.20;97.20;;;;;;7727631;28;20097;-74
2020/12/08 08:42:21;;;;;;;1.60;1.10;;;5.10;97.10;;;;;;7727043;28;20436;-81
2020/12/08 08:46:02;;;;;;;1.17;0.80;;;5.10;97.10;;;;;;7726670;28;20134;-81
2020/12/08 08:49:44;;;;;;;0.93;0.90;;;5.10;97.10;;;;;;7730772;28;20094;-77
2020/12/08 08:53:25;;;;;;;1.80;1.10;;;5.20;97.40;;;;;;7734833;28;20139;-76
2020/12/08 08:57:07;;;;;;;1.20;0.90;;;5.20;97.90;;;;;;7729306;28;20132;-76
2020/12/08 09:00:48;;;;;;;2.30;1.33;;;5.20;98.30;;;;;;7730631;28;20059;-79
2020/12/08 09:04:29;;;;;;;1.80;1.10;;;5.20;98.40;;;;;;7728185;28;20087;-77
2020/12/08 09:08:11;;;;;;;1.57;1.00;;;5.30;98.30;;;;;;7730788;28;20060;-76
2020/12/08 09:11:53;;;;;;;2.10;1.07;;;5.50;98.30;;;;;;7731210;28;20146;-75
2020/12/08 09:15:34;;;;;;;2.10;1.30;;;5.40;98.20;;;;;;7731494;28;20056;-76
2020/12/08 09:19:18;;;;;;;1.90;1.43;;;5.40;98.20;;;;;;7731634;28;20055;-76
2020/12/08 09:23:00;;;;;;;3.07;1.20;;;5.40;98.30;;;;;;7728459;28;20060;-77
2020/12/08 09:26:41;;;;;;;2.43;1.60;;;5.40;98.50;;;;;;7731357;28;20091;-77
2020/12/08 09:30:24;;;;;;;3.07;1.87;;;5.50;98.60;;;;;;7720768;28;20079;-76
2020/12/08 09:34:05;;;;;;;2.27;1.47;;;5.50;98.80;;;;;;7729859;28;20059;-76
2020/12/08 09:37:47;;;;;;;2.57;1.80;;;5.60;98.90;;;;;;7728296;28;20518;-75
2020/12/08 09:41:28;;;;;;;3.27;1.93;;;5.60;99.00;;;;;;7731323;28;20091;-75
2020/12/08 09:45:10;;;;;;;3.00;1.80;;;5.70;99.10;;;;;;7723367;28;20577;-76
2020/12/08 09:48:52;;;;;;;2.10;1.30;;;5.70;99.20;;;;;;7730657;28;20492;-76
2020/12/08 09:52:33;;;;;;;2.70;1.60;;;5.80;99.20;;;;;;7722892;28;20095;-76
2020/12/08 09:56:14;;;;;;;2.40;1.60;;;5.80;99.30;;;;;;7727868;28;20071;-77
2020/12/08 09:59:56;;;;;;;2.77;1.67;;;5.90;99.40;;;;;;7727362;28;20121;-79
2020/12/08 10:03:37;;;;;;;3.53;1.90;;;6.00;99.50;;;;;;7736657;28;20055;-76
2020/12/08 10:07:23;;;;;;;2.70;1.77;;;6.10;99.50;;;;;;7730566;28;20086;-77
2020/12/08 10:11:04;;;;;;;2.43;1.50;;;6.10;99.60;;;;;;7730757;28;20080;-79
2020/12/08 10:15:04;;;;;;;2.47;1.57;;;6.20;99.80;;;;;;7731493;28;20463;-76
2020/12/08 10:18:45;;;;;;;2.77;1.67;;;6.40;99.70;;;;;;7730499;28;20051;-81
2020/12/08 10:22:27;;;;;;;3.23;1.70;;;6.40;99.70;;;;;;7729576;28;20096;-76
2020/12/08 10:26:10;;;;;;;1.77;1.20;;;6.40;99.60;;;;;;7728931;28;20475;-76
2020/12/08 10:29:52;;;;;;;1.87;1.27;;;6.50;99.60;;;;;;7729830;28;20088;-77
2020/12/08 10:33:34;;;;;;;2.30;1.40;;;6.60;99.70;;;;;;7730323;28;20067;-77
2020/12/08 10:37:19;;;;;;;1.83;1.10;;;6.70;99.80;;;;;;7730419;28;20101;-76
2020/12/08 10:41:00;;;;;;;1.87;1.17;;;6.80;99.80;;;;;;7727068;28;20056;-77
2020/12/08 10:44:42;;;;;;;1.87;1.23;;;6.90;99.90;;;;;;7723736;28;20382;-77
2020/12/08 10:48:24;;;;;;;2.57;1.60;;;7.00;99.90;;;;;;7729743;28;20095;-76
2020/12/08 10:52:05;;;;;;;2.27;1.40;;;7.10;99.90;;;;;;7730150;28;20087;-79
2020/12/08 10:55:47;;;;;;;2.50;1.50;;;7.20;99.90;;;;;;7729535;28;20061;-77
2020/12/08 10:59:28;;;;;;;2.93;1.90;;;7.30;99.90;;;;;;7722345;28;20139;-80
2020/12/08 11:03:15;;;;;;;3.43;2.00;;;7.40;99.90;;;;;;7721819;28;20555;-79
2020/12/08 11:06:58;;;;;;;2.20;1.63;;;7.50;99.90;;;;;;7729392;28;20393;-79
2020/12/08 11:10:41;;;;;;;5.23;2.83;;;7.60;99.90;;;;;;7728583;28;20055;-77
2020/12/08 11:14:22;;;;;;;2.80;1.70;;;7.70;99.90;;;;;;7724158;28;20089;-76
2020/12/08 11:18:04;;;;;;;1.97;1.40;;;7.80;99.90;;;;;;7723974;28;20059;-76
2020/12/08 11:21:45;;;;;;;3.67;1.30;;;7.90;99.90;;;;;;7723306;28;20071;-76
2020/12/08 11:25:47;;;;;;;1.60;1.10;;;8.10;99.90;;;;;;7722434;28;20054;-76
2020/12/08 11:29:28;;;;;;;6.30;3.73;;;8.20;99.90;;;;;;7725750;28;20341;-77
2020/12/08 11:33:10;;;;;;;4.17;2.37;;;8.40;99.90;;;;;;7729342;28;20060;-76
2020/12/08 11:36:55;;;;;;;4.00;2.33;;;8.50;99.90;;;;;;7729080;28;20445;-76
2020/12/08 11:40:36;;;;;;;2.77;1.97;;;8.60;99.90;;;;;;7729390;28;20092;-77
2020/12/08 11:44:18;;;;;;;3.70;2.20;;;8.70;99.90;;;;;;7730235;28;20119;-77
2020/12/08 11:47:59;;;;;;;3.03;1.90;;;8.80;99.90;;;;;;7731083;28;20176;-75
2020/12/08 11:51:41;;;;;;;4.17;2.23;;;9.00;99.90;;;;;;7730121;28;20131;-75
2020/12/08 11:55:23;;;;;;;3.80;1.87;;;9.10;99.90;;;;;;7723269;28;20052;-75
2020/12/08 11:59:05;;;;;;;2.30;1.60;;;9.20;99.90;;;;;;7730840;28;20378;-78
2020/12/08 12:02:46;;;;;;;1.93;1.33;;;9.30;99.90;;;;;;7726750;28;20129;-76
2020/12/08 12:06:28;;;;;;;1.87;1.07;;;9.40;99.90;;;;;;7723108;28;20195;-75
2020/12/08 12:10:10;;;;;;;3.57;1.90;;;9.50;99.90;;;;;;7724527;28;20143;-78
2020/12/08 12:13:51;;;;;;;2.83;2.00;;;9.70;99.60;;;;;;7728013;28;20102;-76
2020/12/08 12:17:32;;;;;;;3.97;2.40;;;9.70;99.10;;;;;;7723019;28;20122;-78
2020/12/08 12:21:14;;;;;;;2.10;1.40;;;9.80;98.60;;;;;;7729323;28;20067;-78
2020/12/08 12:24:56;;;;;;;4.13;2.00;;;9.80;98.50;;;;;;7733679;28;20344;-76
2020/12/08 12:28:38;;;;;;;3.43;2.07;;;9.80;98.10;;;;;;7734321;28;20066;-77
2020/12/08 12:32:19;;;;;;;1.97;1.37;;;9.80;97.90;;;;;;7732421;28;20083;-76
2020/12/08 12:36:01;;;;;;;2.00;1.30;;;9.90;97.90;;;;;;7731370;28;20142;-76
2020/12/08 12:39:43;;;;;;;3.23;1.57;;;9.80;97.90;;;;;;7723316;28;20098;-78
2020/12/08 12:43:24;;;;;;;3.53;1.70;;;9.90;97.60;;;;;;7733225;28;20117;-76
2020/12/08 12:47:05;;;;;;;2.93;1.70;;;9.90;97.40;;;;;;7735114;28;20056;-76
2020/12/08 12:50:47;;;;;;;4.63;2.77;;;9.90;97.60;;;;;;7736403;28;20635;-78
2020/12/08 12:54:28;;;;;;;3.70;2.13;;;9.90;97.60;;;;;;7735636;28;20242;-77
2020/12/08 12:58:10;;;;;;;3.53;2.50;;;10.00;97.60;;;;;;7730399;28;20052;-76
2020/12/08 13:01:51;;;;;;;3.60;2.33;;;10.00;97.80;;;;;;7734148;28;20107;-79
2020/12/08 13:05:33;;;;;;;2.67;1.83;;;10.00;97.60;;;;;;7728605;28;20357;-79
2020/12/08 13:09:15;;;;;;;2.70;1.70;;;9.90;97.50;;;;;;7730982;28;20055;-79
2020/12/08 13:12:56;;;;;;;2.50;1.50;;;9.90;97.50;;;;;;7727909;28;20084;-75
2020/12/08 13:16:38;;;;;;;2.10;1.50;;;9.90;97.50;;;;;;7728576;28;20168;-77
2020/12/08 13:20:20;;;;;;;2.53;1.30;;;9.80;97.50;;;;;;7726546;28;20060;-76
2020/12/08 13:24:02;;;;;;;2.80;1.60;;;9.90;97.70;;;;;;7729857;28;20135;-77
2020/12/08 13:27:44;;;;;;;2.60;1.67;;;9.80;97.80;;;;;;7729951;28;20078;-78
2020/12/08 13:31:25;;;;;;;2.60;1.50;;;9.80;97.80;;;;;;7730277;28;20363;-78
2020/12/08 13:35:08;;;;;;;4.00;2.47;;;9.80;97.90;;;;;;7728634;28;20610;-77
2020/12/08 13:38:50;;;;;;;1.93;1.40;;;9.80;97.80;;;;;;7727180;28;20153;-77
2020/12/08 13:42:31;;;;;;;4.30;2.93;;;9.90;97.80;;;;;;7732510;28;20075;-77
2020/12/08 13:46:22;;;;;;;3.60;2.17;;;9.90;97.60;;;;;;7732006;28;20068;-78
2020/12/08 13:50:05;;;;;;;6.70;4.10;;;10.00;97.70;;;;;;7732661;28;20452;-78
2020/12/08 13:53:48;;;;;;;2.97;2.33;;;10.00;97.60;;;;;;7732461;28;20483;-76
2020/12/08 13:57:30;;;;;;;4.33;2.30;;;10.00;97.70;;;;;;7733928;28;20053;-78
2020/12/08 14:01:12;;;;;;;2.30;1.60;;;10.00;97.60;;;;;;7732794;28;20086;-76
2020/12/08 14:04:53;;;;;;;3.17;1.70;;;10.10;97.70;;;;;;7732590;28;20094;-77
2020/12/08 14:08:35;;;;;;;5.53;2.50;;;10.10;97.60;;;;;;7733611;28;20063;-77
2020/12/08 14:12:17;;;;;;;1.80;1.30;;;10.20;97.60;;;;;;7732978;28;20051;-77
2020/12/08 14:15:58;;;;;;;2.83;1.50;;;10.20;97.60;;;;;;7732244;28;20056;-77
2020/12/08 14:19:40;;;;;;;2.80;1.67;;;10.20;97.40;;;;;;7728675;28;20056;-77
2020/12/08 14:23:23;;;;;;;3.47;1.80;;;10.20;97.30;;;;;;7731798;28;20055;-78
2020/12/08 14:27:04;;;;;;;6.00;2.60;;;10.20;97.20;;;;;;7730808;28;20056;-77
2020/12/08 14:30:46;;;;;;;3.53;1.93;;;10.20;96.90;;;;;;7732574;28;20095;-77
2020/12/08 14:34:29;;;;;;;1.90;1.17;;;10.20;96.90;;;;;;7717794;28;20131;-77
2020/12/08 14:38:10;;;;;;;2.53;1.60;;;10.20;97.10;;;;;;7731641;28;20063;-77
2020/12/08 14:41:52;;;;;;;2.23;1.30;;;10.20;97.00;;;;;;7731267;28;20740;-77
2020/12/08 14:45:33;;;;;;;2.97;1.20;;;10.30;97.00;;;;;;7725640;28;20071;-77
2020/12/08 14:49:15;;;;;;;1.60;0.90;;;10.30;97.00;;;;;;7731218;28;20091;-77
2020/12/08 14:52:56;;;;;;;1.40;0.87;;;10.30;97.00;;;;;;7731225;28;20170;-78
2020/12/08 14:56:38;;;;;;;1.43;0.90;;;10.40;97.10;;;;;;7724580;28;20063;-77
2020/12/08 15:00:29;;;;;;;3.77;1.60;;;10.40;97.10;;;;;;7722741;28;20341;-77
2020/12/08 15:04:11;;;;;;;1.43;1.10;;;10.40;97.00;;;;;;7729033;28;20146;-77
2020/12/08 15:07:54;;;;;;;3.27;1.53;;;10.40;97.00;;;;;;7723877;28;20091;-77
2020/12/08 15:11:36;;;;;;;1.70;1.20;;;10.50;97.00;;;;;;7721976;28;20055;-77
2020/12/08 15:15:17;;;;;;;1.53;1.10;;;10.50;96.90;;;;;;7728772;28;20079;-77
2020/12/08 15:18:59;;;;;;;2.37;1.40;;;10.50;96.80;;;;;;7730108;28;20130;-77
2020/12/08 15:22:44;;;;;;;3.53;1.50;;;10.50;96.60;;;;;;7730409;28;20139;-77
2020/12/08 15:26:25;;;;;;;1.80;1.20;;;10.50;96.30;;;;;;7730555;28;20080;-78
2020/12/08 15:30:07;;;;;;;2.67;1.20;;;10.40;96.20;;;;;;7730323;28;20066;-78
2020/12/08 15:33:51;;;;;;;2.57;1.00;;;10.30;96.20;;;;;;7728405;28;20063;-77
2020/12/08 15:37:32;;;;;;;5.07;1.30;;;10.20;96.10;;;;;;7729711;28;20052;-78
2020/12/08 15:41:21;;;;;;;3.83;1.30;;;10.20;96.00;;;;;;7730061;28;20472;-79
2020/12/08 15:45:03;;;;;;;1.10;0.90;;;10.10;95.90;;;;;;7730900;28;20063;-77
2020/12/08 15:48:45;;;;;;;1.43;0.90;;;9.90;95.90;;;;;;7745262;28;20124;-79
2020/12/08 15:52:26;;;;;;;2.77;1.10;;;9.80;95.80;;;;;;7729592;28;20099;-78
2020/12/08 15:56:08;;;;;;;1.37;1.00;;;9.70;95.80;;;;;;7731222;28;20087;-77
2020/12/08 15:59:49;;;;;;;1.17;0.90;;;9.60;95.80;;;;;;7735744;28;20052;-76
2020/12/08 16:03:31;;;;;;;1.90;0.87;;;9.40;95.70;;;;;;7736140;28;20138;-76
2020/12/08 16:07:13;;;;;;;1.87;1.00;;;9.30;95.70;;;;;;7736389;28;20139;-76
2020/12/08 16:10:54;;;;;;;1.70;0.77;;;9.10;95.80;;;;;;7733984;28;20055;-77
2020/12/08 16:14:37;;;;;;;1.37;0.80;;;9.00;95.80;;;;;;7737522;28;20481;-76
2020/12/08 16:18:18;;;;;;;1.23;0.90;;;8.90;95.80;;;;;;7736041;28;20135;-76
2020/12/08 16:22:00;;;;;;;0.60;0.60;;;8.80;95.90;;;;;;7734090;28;20409;-77
2020/12/08 16:25:42;;;;;;;1.20;0.77;;;8.70;95.80;;;;;;7734358;28;20088;-78
2020/12/08 16:29:23;;;;;;;0.60;0.60;;;8.60;95.70;;;;;;7732399;28;20103;-78
2020/12/08 16:33:07;;;;;;;0.90;0.63;;;8.40;95.70;;;;;;7741972;28;20322;-76
2020/12/08 16:36:49;;;;;;;1.10;0.60;;;8.30;95.70;;;;;;7724062;28;20059;-76
2020/12/08 16:40:31;;;;;;;0.90;0.70;;;8.30;95.70;;;;;;7734237;28;20188;-75
2020/12/08 16:44:14;;;;;;;0.90;0.77;;;8.10;95.80;;;;;;7733434;28;20139;-80
2020/12/08 16:47:55;;;;;;;2.57;1.33;;;8.10;96.00;;;;;;7734441;28;20537;-76
2020/12/08 16:51:38;;;;;;;1.93;1.13;;;7.90;96.20;;;;;;7744309;28;20147;-80
2020/12/08 16:55:20;;;;;;;0.93;0.70;;;7.90;96.20;;;;;;7736508;28;20109;-75
2020/12/08 16:59:02;;;;;;;1.40;0.90;;;7.80;96.20;;;;;;7734769;28;20135;-75
2020/12/08 17:02:44;;;;;;;1.57;1.27;;;7.70;96.30;;;;;;7761195;27;20060;-78
2020/12/08 17:06:26;;;;;;;1.07;0.80;;;7.60;96.70;;;;;;7733280;28;20063;-76
2020/12/08 17:10:09;;;;;;;1.07;0.80;;;7.50;97.10;;;;;;7730792;28;20089;-75
2020/12/08 17:13:50;;;;;;;2.70;1.10;;;7.60;97.60;;;;;;7738495;28;20091;-76
2020/12/08 17:17:37;;;;;;;2.10;0.90;;;7.60;97.90;;;;;;7731735;28;20071;-78
2020/12/08 17:21:20;;;;;;;0.77;0.70;;;7.80;98.10;;;;;;7727989;28;20605;-77
2020/12/08 17:25:03;;;;;;;1.90;0.90;;;7.90;98.10;;;;;;7729435;28;20060;-77
2020/12/08 17:28:45;;;;;;;2.33;1.10;;;8.00;98.00;;;;;;7726178;28;20143;-77
2020/12/08 17:32:26;;;;;;;1.60;1.00;;;8.00;97.80;;;;;;7721963;28;20063;-77
2020/12/08 17:36:08;;;;;;;1.70;1.10;;;8.10;97.70;;;;;;7729532;28;20091;-77
2020/12/08 17:39:49;;;;;;;1.47;0.90;;;8.10;97.60;;;;;;7724331;28;20440;-75
2020/12/08 17:43:31;;;;;;;1.33;0.87;;;8.10;97.50;;;;;;7724701;28;20139;-75
2020/12/08 17:47:12;;;;;;;0.83;0.77;;;8.10;97.80;;;;;;7732078;28;20091;-78
2020/12/08 17:50:54;;;;;;;2.53;1.13;;;8.20;98.10;;;;;;7730342;28;20082;-75
2020/12/08 17:54:36;;;;;;;3.00;0.90;;;8.20;98.20;;;;;;7730029;28;20056;-75
2020/12/08 17:58:20;;;;;;;1.60;0.83;;;8.30;98.20;;;;;;7732077;28;20063;-76
2020/12/08 18:02:01;;;;;;;1.07;0.73;;;8.30;97.90;;;;;;7724244;28;20502;-76
2020/12/08 18:05:43;;;;;;;1.20;0.77;;;8.30;97.70;;;;;;7728425;28;20060;-76
2020/12/08 18:09:25;;;;;;;3.53;2.20;;;8.30;97.60;;;;;;7728925;28;20063;-76
2020/12/08 18:13:06;;;;;;;1.47;1.00;;;8.20;97.50;;;;;;7724145;28;20047;-75
2020/12/08 18:16:48;;;;;;;1.93;1.10;;;8.20;97.30;;;;;;7729890;28;20055;-75
2020/12/08 18:20:29;;;;;;;2.03;1.40;;;8.10;97.10;;;;;;7727852;28;20083;-75
2020/12/08 18:24:11;;;;;;;1.73;1.37;;;8.00;96.90;;;;;;7730266;28;20055;-76
2020/12/08 18:27:52;;;;;;;1.60;1.30;;;7.90;96.90;;;;;;7731118;28;20051;-77
2020/12/08 18:31:34;;;;;;;2.17;1.20;;;7.80;97.00;;;;;;7727425;28;20139;-76
2020/12/08 18:35:16;;;;;;;1.30;0.90;;;7.80;97.10;;;;;;7731977;28;20372;-75
2020/12/08 18:38:57;;;;;;;2.77;1.53;;;7.70;97.00;;;;;;7723692;28;20146;-75
2020/12/08 18:42:48;;;;;;;2.23;1.50;;;7.60;97.20;;;;;;7725169;28;20067;-75
2020/12/08 18:46:34;;;;;;;2.23;1.07;;;7.60;97.60;;;;;;7725352;28;20060;-77
2020/12/08 18:50:15;;;;;;;1.27;0.90;;;7.60;98.00;;;;;;7726822;28;20068;-76
2020/12/08 18:53:57;;;;;;;1.57;1.00;;;7.60;98.50;;;;;;7730070;28;20112;-75
2020/12/08 18:57:43;;;;;;;0.90;0.77;;;7.60;98.80;;;;;;7731977;28;20345;-76
2020/12/08 19:01:25;;;;;;;0.80;0.80;;;7.70;98.90;;;;;;7742768;28;20087;-78
2020/12/08 19:05:06;;;;;;;2.50;0.90;;;7.70;99.00;;;;;;7726995;28;20120;-75
2020/12/08 19:08:48;;;;;;;1.70;0.90;;;7.90;99.00;;;;;;7718121;28;20156;-74
2020/12/08 19:12:30;;;;;;;1.83;0.97;;;7.90;99.00;;;;;;7714251;28;20056;-75
2020/12/08 19:16:12;;;;;;;1.10;0.80;;;8.00;99.10;;;;;;7724586;28;20135;-80
2020/12/08 19:19:56;;;;;;;1.37;0.90;;;8.10;99.10;;;;;;7726270;28;20052;-84
2020/12/08 19:23:40;;;;;;;1.07;0.80;;;8.20;99.10;;;;;;7724570;28;20056;-83
2020/12/08 19:27:25;;;;;;;1.60;1.00;;;8.30;99.10;;;;;;7729625;28;20059;-79
2020/12/08 19:31:07;;;;;;;2.93;1.40;;;8.40;99.00;;;;;;7729925;28;20364;-82